^^
Grace C. Lehan Memorial Weather Station Historical Data
Daily Summary for January 9, 2021 Units:  Metric    English   Both
Daily Weekly Monthly Yearly
  High: Low: Average:
Temperature: 33.5 °C 21.9 °C 26.3 °C
Dew Point: 24.5 °C 20.2 °C 22.6 °C
Humidity: 96% 56.2% 81%
Wind Speed: 6.1km/h 0km/h 0.5km/h
Wind Gust: 17.7km/h - -
Wind- - SSW
Pressure: 1014.1 hPa 1011.7 hPa -
Precipitation: 0 mm    
 
 
Tabular Data for January 9, 2021
Time Temperature Dew Point Pressure Wind Wind Speed Wind Gust Humidity Rainfall Rate (Hourly) solar
00:00 23.2 °C 22.4 °C 1013.8 hPa Calm     95% 0 mm 0 W/m2
00:09 23.2 °C 22.3 °C 1013.8 hPa Calm     95% 0 mm 0 W/m2
00:14 23.2 °C 22.3 °C 1013.8 hPa Calm     95% 0 mm 0 W/m2
00:19 23.1 °C 22.3 °C 1013.8 hPa Calm     95% 0 mm 0 W/m2
00:24 23.1 °C 22.4 °C 1013.8 hPa Calm     95.8% 0 mm 0 W/m2
00:29 23.1 °C 22.3 °C 1013.8 hPa Calm     95.2% 0 mm 0 W/m2
00:34 23.1 °C 22.2 °C 1013.8 hPa Calm     95% 0 mm 0 W/m2
00:39 23.1 °C 22.2 °C 1013.8 hPa Calm     95% 0 mm 0 W/m2
00:44 23 °C 22.2 °C 1013.8 hPa Calm     95% 0 mm 0 W/m2
00:49 23 °C 22.2 °C 1013.8 hPa Calm     95% 0 mm 0 W/m2
00:54 23 °C 22.2 °C 1013.8 hPa Calm     95% 0 mm 0 W/m2
00:59 22.9 °C 22.2 °C 1013.8 hPa Calm     95.6% 0 mm 0 W/m2
01:04 22.9 °C 22.3 °C 1013.8 hPa Calm     96% 0 mm 0 W/m2
01:09 22.9 °C 22.3 °C 1013.4 hPa Calm     96% 0 mm 0 W/m2
01:14 22.9 °C 22.3 °C 1013.4 hPa Calm     96% 0 mm 0 W/m2
01:19 22.9 °C 22.3 °C 1013.4 hPa Calm     96% 0 mm 0 W/m2
01:24 22.9 °C 22.2 °C 1013.4 hPa Calm     96% 0 mm 0 W/m2
01:29 22.9 °C 22.2 °C 1013.4 hPa Calm     96% 0 mm 0 W/m2
01:34 22.8 °C 22.2 °C 1013.4 hPa Calm     96% 0 mm 0 W/m2
01:39 22.8 °C 22.2 °C 1013.8 hPa Calm     96% 0 mm 0 W/m2
01:44 22.8 °C 22.1 °C 1013.8 hPa Calm     96% 0 mm 0 W/m2
01:49 22.8 °C 22.1 °C 1013.4 hPa Calm     96% 0 mm 0 W/m2
01:54 22.7 °C 21.9 °C 1013.4 hPa Calm     95.1% 0 mm 0 W/m2
01:59 22.7 °C 21.8 °C 1013.4 hPa West 0.3 km/h 4.8 km/h 95.2% 0 mm 0 W/m2
02:04 22.6 °C 21.9 °C 1013.4 hPa West 0.2 km/h 4.8 km/h 96% 0 mm 0 W/m2
02:09 22.6 °C 21.9 °C 1013.4 hPa West 0.2 km/h 3.2 km/h 96% 0 mm 0 W/m2
02:14 22.6 °C 21.9 °C 1013.4 hPa West 0.2 km/h 3.2 km/h 96% 0 mm 0 W/m2
02:19 22.5 °C 21.8 °C 1013.4 hPa Calm   3.2 km/h 96% 0 mm 0 W/m2
02:24 22.5 °C 21.8 °C 1013.4 hPa Calm   3.2 km/h 96% 0 mm 0 W/m2
02:29 22.4 °C 21.8 °C 1013.4 hPa Calm   3.2 km/h 96% 0 mm 0 W/m2
02:34 22.4 °C 21.8 °C 1013.4 hPa Calm   3.2 km/h 96% 0 mm 0 W/m2
02:39 22.4 °C 21.8 °C 1013.4 hPa Calm     96% 0 mm 0 W/m2
02:44 22.4 °C 21.8 °C 1013.4 hPa Calm     96% 0 mm 0 W/m2
02:49 22.4 °C 21.8 °C 1013.4 hPa Calm     96% 0 mm 0 W/m2
02:54 22.4 °C 21.8 °C 1013.4 hPa Calm   1.6 km/h 96% 0 mm 0 W/m2
02:59 22.4 °C 21.8 °C 1013.4 hPa West 0.6 km/h 8 km/h 96% 0 mm 0 W/m2
03:04 22.4 °C 21.7 °C 1013.4 hPa Calm   8 km/h 96% 0 mm 0 W/m2
03:09 22.4 °C 21.7 °C 1013.4 hPa Calm   1.6 km/h 96% 0 mm 0 W/m2
03:14 22.4 °C 21.7 °C 1013.4 hPa Calm   1.6 km/h 96% 0 mm 0 W/m2
03:19 22.3 °C 21.7 °C 1013.4 hPa Calm   1.6 km/h 96% 0 mm 0 W/m2
03:24 22.3 °C 21.7 °C 1013.4 hPa Calm   1.6 km/h 96% 0 mm 0 W/m2
03:29 22.3 °C 21.7 °C 1013.1 hPa Calm   1.6 km/h 96% 0 mm 0 W/m2
03:34 22.3 °C 21.7 °C 1013.1 hPa Calm   1.6 km/h 96% 0 mm 0 W/m2
03:39 22.3 °C 21.7 °C 1013.1 hPa Calm   1.6 km/h 96% 0 mm 0 W/m2
03:44 22.3 °C 21.6 °C 1013.1 hPa Calm   1.6 km/h 96% 0 mm 0 W/m2
03:49 22.3 °C 21.6 °C 1013.4 hPa Calm   1.6 km/h 96% 0 mm 0 W/m2
03:54 22.3 °C 21.6 °C 1013.1 hPa Calm   1.6 km/h 96% 0 mm 0 W/m2
03:59 22.3 °C 21.6 °C 1013.1 hPa West 1 km/h 9.7 km/h 96% 0 mm 0 W/m2
04:09 22.2 °C 21.6 °C 1013.1 hPa Calm     96% 0 mm 0 W/m2
04:14 22.2 °C 21.5 °C 1013.1 hPa Calm     96% 0 mm 0 W/m2
04:19 22.2 °C 21.5 °C 1013.1 hPa Calm     96% 0 mm 0 W/m2
04:24 22.2 °C 21.5 °C 1013.1 hPa Calm     96% 0 mm 0 W/m2
04:29 22.1 °C 21.4 °C 1013.1 hPa Calm     96% 0 mm 0 W/m2
04:34 22.1 °C 21.4 °C 1013.1 hPa Calm     96% 0 mm 0 W/m2
04:39 22.1 °C 21.4 °C 1012.8 hPa Calm     96% 0 mm 0 W/m2
04:44 22.1 °C 21.4 °C 1012.8 hPa Calm   1.6 km/h 96% 0 mm 0 W/m2
04:49 22.1 °C 21.4 °C 1012.8 hPa Calm   1.6 km/h 96% 0 mm 0 W/m2
04:54 22.1 °C 21.4 °C 1012.8 hPa Calm   1.6 km/h 96% 0 mm 0 W/m2
04:59 22.1 °C 21.4 °C 1012.8 hPa Calm   1.6 km/h 96% 0 mm 0 W/m2
05:04 22.1 °C 21.4 °C 1012.8 hPa Calm   1.6 km/h 96% 0 mm 0 W/m2
05:09 22 °C 21.3 °C 1012.8 hPa Calm     96% 0 mm 0 W/m2
05:13 22 °C 21.3 °C 1012.8 hPa Calm     96% 0 mm 0 W/m2
05:19 22 °C 21.3 °C 1012.8 hPa Calm     96% 0 mm 0 W/m2
05:24 22 °C 21.3 °C 1013.1 hPa Calm     96% 0 mm 0 W/m2
05:29 21.9 °C 21.3 °C 1013.1 hPa Calm     96% 0 mm 0 W/m2
05:34 21.9 °C 21.3 °C 1013.1 hPa Calm     96% 0 mm 0 W/m2
05:39 21.9 °C 21.3 °C 1013.1 hPa Calm   1.6 km/h 96% 0 mm 7 W/m2
05:44 21.9 °C 21.3 °C 1013.1 hPa Calm   1.6 km/h 96% 0 mm 11 W/m2
05:49 21.9 °C 21.3 °C 1013.1 hPa Calm   1.6 km/h 96% 0 mm 11 W/m2
05:51 21.9 °C 21.3 °C 1013.1 hPa Calm   1.6 km/h 96% 0 mm 12 W/m2
06:30 22.2 °C 21.6 °C 1012.8 hPa Calm     96% 0 mm 42 W/m2
07:00 22.4 °C 21.8 °C 1013.1 hPa Calm     96% 0 mm 72 W/m2
07:30 23.2 °C 22.5 °C 1013.1 hPa Calm     96% 0 mm 130 W/m2
08:04 23.9 °C 22.9 °C 1013.1 hPa Calm     94.2% 0 mm 287 W/m2
08:09 24.2 °C 23.1 °C 1013.4 hPa West 1.4 km/h 9.7 km/h 93.6% 0 mm 404 W/m2
08:14 24.4 °C 23 °C 1013.4 hPa West 0.5 km/h 9.7 km/h 92% 0 mm 436 W/m2
08:19 24.8 °C 23.1 °C 1013.1 hPa WNW 0.3 km/h 9.7 km/h 90.2% 0 mm 436 W/m2
08:24 25.1 °C 22.8 °C 1013.4 hPa NW 0.2 km/h 9.7 km/h 87.7% 0 mm 591 W/m2
08:29 25.4 °C 23.2 °C 1013.1 hPa Calm   9.7 km/h 87.3% 0 mm 619 W/m2
08:34 26 °C 23.3 °C 1013.1 hPa WNW 1.1 km/h 11.3 km/h 85.2% 0 mm 619 W/m2
08:39 26.4 °C 23.3 °C 1013.1 hPa West 1.3 km/h 11.3 km/h 82.9% 0 mm 619 W/m2
08:44 26.9 °C 23.8 °C 1013.1 hPa Calm   11.3 km/h 83% 0 mm 652 W/m2
08:49 27.4 °C 23.8 °C 1013.1 hPa WNW 2.3 km/h 11.3 km/h 80.5% 0 mm 673 W/m2
08:54 27.7 °C 23.5 °C 1013.4 hPa West 1.4 km/h 11.3 km/h 78.2% 0 mm 612 W/m2
08:59 27.8 °C 23.6 °C 1013.4 hPa West 0.8 km/h 11.3 km/h 77.5% 0 mm 450 W/m2
09:04 27.8 °C 23.4 °C 1013.4 hPa West 1.3 km/h 11.3 km/h 76.8% 0 mm 371 W/m2
09:09 27.7 °C 23.3 °C 1013.4 hPa NW 2.6 km/h 11.3 km/h 77.1% 0 mm 401 W/m2
09:14 27.6 °C 23 °C 1013.4 hPa WNW 1.9 km/h 11.3 km/h 76.3% 0 mm 401 W/m2
09:19 27.4 °C 23 °C 1013.4 hPa WNW 4.8 km/h 16.1 km/h 76.7% 0 mm 534 W/m2
09:24 27.4 °C 23 °C 1013.4 hPa WNW 1.9 km/h 16.1 km/h 77.1% 0 mm 485 W/m2
09:29 27.4 °C 23.2 °C 1013.4 hPa West 0.5 km/h 16.1 km/h 78% 0 mm 339 W/m2
09:34 27.4 °C 23.2 °C 1013.4 hPa WNW 2.1 km/h 16.1 km/h 77.7% 0 mm 385 W/m2
09:39 27.4 °C 22.9 °C 1013.4 hPa WNW 3.4 km/h 11.3 km/h 76.5% 0 mm 504 W/m2
09:44 27.4 °C 23.1 °C 1013.4 hPa NW 0.3 km/h 11.3 km/h 76.9% 0 mm 584 W/m2
09:49 27.6 °C 23.3 °C 1013.8 hPa NW 0.2 km/h 11.3 km/h 77.3% 0 mm 599 W/m2
09:54 27.8 °C 23.6 °C 1013.8 hPa NW 0.2 km/h 11.3 km/h 77.9% 0 mm 642 W/m2
09:59 28.2 °C 23.6 °C 1013.8 hPa NNW 1.1 km/h 11.3 km/h 76.4% 0 mm 684 W/m2
10:04 28.5 °C 23.5 °C 1013.8 hPa NW 1.9 km/h 11.3 km/h 74.4% 0 mm 684 W/m2
10:09 28.7 °C 23.7 °C 1013.8 hPa Calm   11.3 km/h 74.3% 0 mm 596 W/m2
10:14 28.9 °C 23.8 °C 1013.8 hPa NNE 0.6 km/h 11.3 km/h 73.9% 0 mm 520 W/m2
10:19 28.9 °C 23.9 °C 1013.8 hPa NNE 0.3 km/h 11.3 km/h 74.2% 0 mm 457 W/m2
10:24 29.1 °C 23.8 °C 1013.8 hPa NNE 0.6 km/h 11.3 km/h 73.4% 0 mm 974 W/m2
10:29 29.3 °C 24.3 °C 1013.8 hPa WNW 1.8 km/h 11.3 km/h 74.5% 0 mm 974 W/m2
10:33 29.6 °C 24.3 °C 1013.8 hPa West 0.3 km/h 11.3 km/h 73.5% 0 mm 854 W/m2
10:39 29.9 °C 24 °C 1013.8 hPa WNW 1.3 km/h 14.5 km/h 70.8% 0 mm 807 W/m2
10:44 29.9 °C 23.4 °C 1013.8 hPa Calm   14.5 km/h 68.2% 0 mm 826 W/m2
10:49 29.8 °C 23.7 °C 1013.8 hPa WNW 1.3 km/h 14.5 km/h 69.7% 0 mm 737 W/m2
10:54 29.9 °C 23.8 °C 1013.8 hPa West 1.4 km/h 14.5 km/h 69.7% 0 mm 958 W/m2
10:59 30 °C 23.9 °C 1013.8 hPa South 0.2 km/h 14.5 km/h 70.1% 0 mm 958 W/m2
11:04 29.9 °C 23.7 °C 1014.1 hPa WNW 1.3 km/h 14.5 km/h 69.3% 0 mm 462 W/m2
11:09 29.8 °C 23.4 °C 1014.1 hPa NW 2.6 km/h 9.7 km/h 68.7% 0 mm 267 W/m2
11:14 29.7 °C 23.4 °C 1014.1 hPa NNE 1 km/h 9.7 km/h 69.3% 0 mm 1035 W/m2
11:19 29.7 °C 23.4 °C 1014.1 hPa NNE 0.6 km/h 9.7 km/h 69.1% 0 mm 253 W/m2
11:24 29.7 °C 23.7 °C 1013.8 hPa NE 0.8 km/h 9.7 km/h 70.4% 0 mm 455 W/m2
11:29 29.7 °C 23.7 °C 1013.8 hPa ENE 0.3 km/h 9.7 km/h 69.9% 0 mm 338 W/m2
11:34 29.7 °C 23.4 °C 1013.8 hPa NE 0.3 km/h 9.7 km/h 68.9% 0 mm 1046 W/m2
11:39 29.8 °C 23.3 °C 1013.8 hPa NE 0.3 km/h 4.8 km/h 68.5% 0 mm 1044 W/m2
11:44 30.1 °C 24.1 °C 1013.8 hPa NE 0.3 km/h 4.8 km/h 70.5% 0 mm 1081 W/m2
11:49 30.5 °C 24.2 °C 1013.8 hPa NE 0.3 km/h 4.8 km/h 68.9% 0 mm 1097 W/m2
11:54 30.8 °C 24.2 °C 1013.8 hPa NNW 3.9 km/h 11.3 km/h 67.9% 0 mm 297 W/m2
11:59 30.9 °C 23.9 °C 1013.8 hPa WNW 1.9 km/h 11.3 km/h 66.3% 0 mm 1011 W/m2
12:04 30.9 °C 24.1 °C 1013.8 hPa Calm     67% 0 mm 1037 W/m2
12:09 31.1 °C 24.5 °C 1013.8 hPa WNW 0.5 km/h 4.8 km/h 67.9% 0 mm 1137 W/m2
12:14 31.4 °C 23.8 °C 1013.8 hPa NNW 0.8 km/h 8 km/h 64.3% 0 mm 1099 W/m2
12:19 31.4 °C 23.6 °C 1013.4 hPa ENE 1.8 km/h 11.3 km/h 63.1% 0 mm 1081 W/m2
12:21 31.4 °C 24.1 °C 1013.4 hPa NE 2.7 km/h 11.3 km/h 65.3% 0 mm 1005 W/m2
12:30 31.8 °C 23.9 °C 1013.4 hPa NE 1.6 km/h 11.3 km/h 63% 0 mm 1020 W/m2
13:00 31.8 °C 23.4 °C 1013.1 hPa NW 1.6 km/h 9.7 km/h 61% 0 mm 969 W/m2
13:30 31.9 °C 22.6 °C 1013.1 hPa North 1.6 km/h 14.5 km/h 58% 0 mm 946 W/m2
14:00 32.9 °C 24.1 °C 1012.8 hPa East 1.6 km/h 11.3 km/h 60% 0 mm 980 W/m2
14:30 32.5 °C 23.2 °C 1012.8 hPa Calm   4.8 km/h 58% 0 mm 692 W/m2
15:29 33.5 °C 23.8 °C 1012.8 hPa WNW 4.5 km/h 8 km/h 56.9% 0 mm 692 W/m2
15:34 33.5 °C 23.9 °C 1012.1 hPa WNW 2.9 km/h 9.7 km/h 57.5% 0 mm 926 W/m2
15:39 33.4 °C 23.8 °C 1012.1 hPa West 0.5 km/h 9.7 km/h 57.3% 0 mm 909 W/m2
15:44 33.4 °C 24.1 °C 1011.7 hPa SW 2.7 km/h 9.7 km/h 57.9% 0 mm 861 W/m2
15:49 33.4 °C 23.8 °C 1011.7 hPa WSW 2.3 km/h 11.3 km/h 57.2% 0 mm 294 W/m2
15:54 33.2 °C 23.3 °C 1011.7 hPa SW 2.6 km/h 11.3 km/h 56.2% 0 mm 360 W/m2
15:59 33 °C 23.8 °C 1011.7 hPa Calm   11.3 km/h 58.6% 0 mm 350 W/m2
16:00 33 °C 23.9 °C 1011.7 hPa Calm   11.3 km/h 59% 0 mm 207 W/m2
16:09 32.8 °C 23.6 °C 1012.1 hPa NE 3.2 km/h 11.3 km/h 58.2% 0 mm 160 W/m2
16:14 32.2 °C 23.1 °C 1012.1 hPa ENE 6.1 km/h 16.1 km/h 58.8% 0 mm 84 W/m2
16:19 31.2 °C 22.8 °C 1012.1 hPa ENE 3.5 km/h 16.1 km/h 60.9% 0 mm 81 W/m2
16:24 30.4 °C 22.3 °C 1012.1 hPa East 5.5 km/h 17.7 km/h 61.7% 0 mm 109 W/m2
16:29 29.8 °C 21.8 °C 1012.1 hPa ENE 1.9 km/h 17.7 km/h 62.5% 0 mm 174 W/m2
16:34 29.3 °C 22.2 °C 1012.1 hPa East 3.4 km/h 17.7 km/h 65.3% 0 mm 202 W/m2
16:39 29.2 °C 22.3 °C 1011.7 hPa ENE 0.2 km/h 14.5 km/h 66.4% 0 mm 144 W/m2
16:44 29.2 °C 22.5 °C 1011.7 hPa Calm   14.5 km/h 67.2% 0 mm 134 W/m2
16:49 29.3 °C 22.6 °C 1012.1 hPa Calm   14.5 km/h 67% 0 mm 134 W/m2
16:54 29.4 °C 22.7 °C 1012.1 hPa Calm   14.5 km/h 67% 0 mm 105 W/m2
16:59 29.5 °C 22.9 °C 1012.1 hPa Calm   14.5 km/h 67.7% 0 mm 98 W/m2
17:04 29.6 °C 22.7 °C 1012.1 hPa Calm   14.5 km/h 66.6% 0 mm 98 W/m2
17:09 29.7 °C 22.6 °C 1012.1 hPa Calm     65.6% 0 mm 97 W/m2
17:34 29.6 °C 22.6 °C 1011.7 hPa East 0.3 km/h 4.8 km/h 66.3% 0 mm 83 W/m2
17:39 29.4 °C 23.1 °C 1012.1 hPa Calm   4.8 km/h 68.9% 0 mm 83 W/m2
17:44 29.3 °C 23.3 °C 1011.7 hPa Calm   4.8 km/h 70% 0 mm 65 W/m2
17:49 29.2 °C 23.1 °C 1011.7 hPa Calm   4.8 km/h 69.8% 0 mm 53 W/m2
17:54 29 °C 23.1 °C 1011.7 hPa Calm   4.8 km/h 70.2% 0 mm 53 W/m2
17:59 28.9 °C 23.4 °C 1012.1 hPa Calm   4.8 km/h 72% 0 mm 58 W/m2
18:04 28.8 °C 23.2 °C 1012.1 hPa Calm   4.8 km/h 72% 0 mm 63 W/m2
18:09 28.7 °C 23.2 °C 1012.1 hPa Calm     72.3% 0 mm 76 W/m2
18:14 28.7 °C 23.4 °C 1012.1 hPa Calm     73.4% 0 mm 77 W/m2
18:19 28.7 °C 23.6 °C 1012.1 hPa Calm     74% 0 mm 74 W/m2
18:24 28.6 °C 23.5 °C 1012.1 hPa Calm     74% 0 mm 72 W/m2
18:29 28.6 °C 23.7 °C 1012.1 hPa Calm     74.9% 0 mm 72 W/m2
18:34 28.5 °C 23.6 °C 1012.1 hPa Calm     75% 0 mm 72 W/m2
18:39 28.4 °C 23.5 °C 1012.1 hPa Calm     74.7% 0 mm 70 W/m2
18:44 28.3 °C 22.9 °C 1012.4 hPa Calm     72.5% 0 mm 69 W/m2
18:49 28.3 °C 23 °C 1012.4 hPa Calm     73% 0 mm 67 W/m2
18:54 28.3 °C 22.9 °C 1012.8 hPa Calm     72.8% 0 mm 63 W/m2
18:59 28.2 °C 23.1 °C 1012.8 hPa Calm     73.6% 0 mm 56 W/m2
19:04 28.2 °C 22.9 °C 1012.8 hPa Calm     73.3% 0 mm 53 W/m2
19:09 28.1 °C 22.8 °C 1012.8 hPa Calm     73% 0 mm 46 W/m2
19:14 28 °C 22.7 °C 1012.8 hPa Calm     73% 0 mm 40 W/m2
19:19 27.9 °C 22.7 °C 1012.8 hPa Calm     73% 0 mm 37 W/m2
19:24 27.9 °C 22.6 °C 1012.8 hPa Calm     73% 0 mm 33 W/m2
19:29 27.8 °C 22.5 °C 1012.8 hPa Calm     72.7% 0 mm 30 W/m2
19:34 27.8 °C 22.5 °C 1012.8 hPa Calm     73% 0 mm 30 W/m2
19:39 27.7 °C 22.6 °C 1013.1 hPa Calm     73.5% 0 mm 35 W/m2
19:44 27.7 °C 22.6 °C 1013.1 hPa Calm     74% 0 mm 42 W/m2
19:49 27.7 °C 22.7 °C 1013.1 hPa Calm     74.5% 0 mm 47 W/m2
19:54 27.7 °C 22.8 °C 1013.1 hPa Calm     75% 0 mm 47 W/m2
19:59 27.7 °C 22.9 °C 1013.1 hPa Calm     75.1% 0 mm 46 W/m2
20:00 27.7 °C 23.1 °C 1013.1 hPa Calm     76% 0 mm 35 W/m2
20:09 27.6 °C 22.8 °C 1013.1 hPa Calm     75.2% 0 mm 23 W/m2
20:14 27.6 °C 22.7 °C 1013.1 hPa Calm     75% 0 mm 18 W/m2
20:19 27.5 °C 22.8 °C 1013.1 hPa Calm     75.7% 0 mm 11 W/m2
20:24 27.4 °C 22.8 °C 1013.1 hPa Calm     76% 0 mm 9 W/m2
20:29 27.4 °C 22.8 °C 1013.1 hPa Calm     76% 0 mm 5 W/m2
20:34 27.3 °C 22.8 °C 1013.1 hPa Calm     76.2% 0 mm 0 W/m2
20:39 27.3 °C 22.9 °C 1013.1 hPa Calm     77% 0 mm 0 W/m2
20:44 27.2 °C 22.9 °C 1013.1 hPa Calm     77.3% 0 mm 0 W/m2
20:49 27.2 °C 23 °C 1013.1 hPa Calm     78% 0 mm 0 W/m2
20:54 27.1 °C 22.9 °C 1013.1 hPa Calm     78% 0 mm 0 W/m2
20:59 26.9 °C 22.9 °C 1013.1 hPa Calm     78.8% 0 mm 0 W/m2
21:04 26.8 °C 22.9 °C 1013.1 hPa Calm     79% 0 mm 0 W/m2
21:09 26.7 °C 22.8 °C 1013.1 hPa Calm     79% 0 mm 0 W/m2
21:13 26.6 °C 22.8 °C 1013.1 hPa Calm     79.6% 0 mm 0 W/m2
21:19 26.4 °C 22.7 °C 1013.1 hPa Calm     80% 0 mm 0 W/m2
21:24 26.4 °C 22.7 °C 1013.1 hPa Calm     80.3% 0 mm 0 W/m2
21:29 26.3 °C 22.8 °C 1013.1 hPa Calm     81% 0 mm 0 W/m2
21:34 26.2 °C 22.8 °C 1013.1 hPa Calm     81.8% 0 mm 0 W/m2
21:39 26.1 °C 22.8 °C 1013.1 hPa Calm     82% 0 mm 0 W/m2
21:44 26 °C 22.7 °C 1013.1 hPa Calm     82% 0 mm 0 W/m2
21:49 25.9 °C 22.7 °C 1013.1 hPa Calm     82.5% 0 mm 0 W/m2
21:54 25.8 °C 22.7 °C 1013.4 hPa Calm     83% 0 mm 0 W/m2
21:59 25.7 °C 22.6 °C 1013.4 hPa Calm     83% 0 mm 0 W/m2
22:04 25.7 °C 22.6 °C 1013.4 hPa Calm     83% 0 mm 0 W/m2
22:09 25.6 °C 22.4 °C 1013.4 hPa Calm     83% 0 mm 0 W/m2
22:14 25.4 °C 22.4 °C 1013.4 hPa Calm     83% 0 mm 0 W/m2
22:19 25.4 °C 22.3 °C 1013.4 hPa Calm     83.3% 0 mm 0 W/m2
22:24 25.3 °C 22.4 °C 1013.4 hPa Calm     84% 0 mm 0 W/m2
22:29 25.2 °C 22.3 °C 1013.4 hPa Calm     84% 0 mm 0 W/m2
22:34 25.2 °C 22.3 °C 1013.4 hPa Calm     84% 0 mm 0 W/m2
22:39 25.2 °C 22.4 °C 1013.4 hPa Calm     85% 0 mm 0 W/m2
22:44 25.1 °C 22.6 °C 1013.8 hPa Calm     85.6% 0 mm 0 W/m2
22:49 25.1 °C 22.6 °C 1013.8 hPa Calm     86% 0 mm 0 W/m2
22:54 25 °C 22.5 °C 1013.8 hPa Calm     86% 0 mm 0 W/m2
22:59 24.9 °C 22.4 °C 1013.8 hPa Calm     86% 0 mm 0 W/m2
23:04 24.9 °C 22.4 °C 1013.8 hPa Calm     86.3% 0 mm 0 W/m2
23:09 24.8 °C 22.3 °C 1013.8 hPa Calm     86% 0 mm 0 W/m2
23:14 24.7 °C 22.2 °C 1013.8 hPa Calm     86% 0 mm 0 W/m2
23:19 24.7 °C 22.2 °C 1013.8 hPa Calm     86% 0 mm 0 W/m2
23:24 24.6 °C 21.9 °C 1013.8 hPa NNW 0.2 km/h 4.8 km/h 85.4% 0 mm 0 W/m2
23:29 24.4 °C 21.7 °C 1013.8 hPa NNW 0.5 km/h 6.4 km/h 84.6% 0 mm 0 W/m2
23:34 24.3 °C 21.3 °C 1014.1 hPa Calm   6.4 km/h 83.4% 0 mm 0 W/m2
23:39 24.2 °C 21 °C 1014.1 hPa North 0.2 km/h 1.6 km/h 82.1% 0 mm 0 W/m2
23:44 24.2 °C 20.6 °C 1014.1 hPa NE 1 km/h 8 km/h 80.3% 0 mm 0 W/m2
23:49 24.2 °C 20.3 °C 1014.1 hPa Calm   8 km/h 79% 0 mm 0 W/m2
23:54 24.3 °C 20.3 °C 1014.1 hPa Calm   8 km/h 78.4% 0 mm 0 W/m2
23:59 24.3 °C 20.2 °C 1014.1 hPa NW 0.2 km/h 8 km/h 78% 0 mm 0 W/m2
Hartford County Weather
Compliments of Weather Underground - 2 mb